Gaylord, MI

6:04 AM EST on December 21, 2014 (GMT -0500)
GAYLORD ALPINE CENTER | Change Station
CLOSE
Current Station
Personal Weather Station
Location: Gaylord, MI
Elevation: 1385 ft
Nearby Weather Stations

Elev 1385 ft 45.04 °N, 84.67 °W | Updated 5 minutes ago

Overcast
Overcast
22.3 °F
Feels Like 18 °F
N
3.2
Wind Variable Wind from SSE

Today
High -- | Low -- °F
--% Chance of Precip.
Yesterday
High -- | Low -- °F
Precip. -- in
8:13 AM 4:59 PM
Waning Crescent, 0% visible
Pressure 30.26 in
Visibility 10.0 miles
Clouds Overcast 3200 ft
Windchill 18 °F
Dew Point 20 °F
Humidity 89%
Rainfall 0.00 in
Snow Depth Not available.
UV 0 out of 12
Pollen .10 out of 12
Air Quality Not available.
Flu Activity Not available.
METAR KGLR 211053Z AUTO 15003KT 10SM OVC032 M06/M07 A3020 RMK AO2 SLP246 T10561067

More Conditions Fewer Conditions

Pressure 30.26 in
Visibility 10.0 miles
Clouds Overcast 3200 ft
Windchill 18 °F
Dew Point 20 °F
Humidity 89%
Rainfall 0.00 in
Snow Depth Not available.
UV 0 out of 12
Pollen .10 out of 12
Air Quality Not available.
Flu Activity Not available.
METAR KGLR 211053Z AUTO 15003KT 10SM OVC032 M06/M07 A3020 RMK AO2 SLP246 T10561067

More Conditions Fewer Conditions

Nowcast | as of 6:00 am EST on December 21, 2014

At 7 am...cloudy. Patchy fog. Chance of light freezing drizzle and flurries. Temperature 20. Light winds. At 9 am...cloudy. Patchy fog. Chance of light freezing drizzle and flurries. Temperature 23. South winds 6 mph. At 11 am...cloudy. Patchy fog. Chance of light freezing drizzle and flurries. Temperature 26. South winds 6 mph. At 1 PM...cloudy. Patchy fog. Chance of light freezing drizzle and flurries. Temperature 29. South winds 7 mph.

×

10-Day Weather Forecast

Almanac

Astronomy

Dec. 21, 2014 Rise Set
Actual Time
Civil Twilight
Nautical Twilight
Astronomical Twilight
Moon
Length of Visible Light
Length of Day
Tomorrow will be .
, % of the Moon is Illuminated

Today's Extremes

State Highs State Lows

Community

WunderPhotos

Upload Photos

1,779,367 photos uploaded!

WunderBlogs® & News

Nearby

Air Quality

  Air Quality AQ Index Pollutant
Not available.

Snow Depth

Station Depth Elevation

Earthquake Activity

City Distance Mag. Time & Date
Minimum magnitude displayed is 2.5.

Coastal Water Temperatures

Place Temperature

Nearby Weather Stations